createdAt,value
2022-12-16T00:01:26.858Z,22.66
2022-12-16T00:03:55.063Z,22.64
2022-12-16T00:06:19.590Z,22.65
2022-12-16T00:08:45.974Z,22.65
2022-12-16T00:11:12.349Z,22.65
2022-12-16T00:13:38.750Z,22.65
2022-12-16T00:16:05.177Z,22.65
2022-12-16T00:18:31.480Z,22.66
2022-12-16T00:20:57.825Z,22.66
2022-12-16T00:23:24.202Z,22.64
2022-12-16T00:25:50.544Z,22.64
2022-12-16T00:28:16.931Z,22.63
2022-12-16T00:30:43.302Z,22.64
2022-12-16T00:33:09.690Z,22.64
2022-12-16T00:35:36.037Z,22.61
2022-12-16T00:38:02.427Z,22.63
2022-12-16T00:40:28.767Z,22.63
2022-12-16T00:42:55.186Z,22.63
2022-12-16T00:45:21.493Z,22.62
2022-12-16T00:47:47.884Z,22.61
2022-12-16T00:50:14.227Z,22.61
2022-12-16T00:52:40.616Z,22.60
2022-12-16T00:55:06.959Z,22.60
2022-12-16T00:57:33.346Z,22.57
2022-12-16T00:59:59.683Z,22.59
2022-12-16T01:02:26.195Z,22.59
2022-12-16T01:04:52.424Z,22.59
2022-12-16T01:07:18.814Z,22.57
2022-12-16T01:09:45.149Z,22.59
2022-12-16T01:12:11.537Z,22.56
2022-12-16T01:14:37.872Z,22.57
2022-12-16T01:17:04.272Z,22.57
2022-12-16T01:19:30.622Z,22.57
2022-12-16T01:21:57.003Z,22.55
2022-12-16T01:24:23.344Z,22.55
2022-12-16T01:26:49.737Z,22.55
2022-12-16T01:29:16.084Z,22.55
2022-12-16T01:31:42.562Z,22.55
2022-12-16T01:34:08.848Z,22.55
2022-12-16T01:36:35.291Z,22.53
2022-12-16T01:39:01.680Z,22.50
2022-12-16T01:41:28.101Z,22.50
2022-12-16T01:43:54.444Z,22.50
2022-12-16T01:46:20.908Z,22.49
2022-12-16T01:48:47.164Z,22.50
2022-12-16T01:51:13.585Z,22.50
2022-12-16T01:53:39.924Z,22.50
2022-12-16T01:56:06.313Z,22.50
2022-12-16T01:58:32.648Z,22.52
2022-12-16T02:00:59.101Z,22.52
2022-12-16T02:03:25.443Z,22.53
2022-12-16T02:05:51.782Z,22.49
2022-12-16T02:08:18.115Z,22.50
2022-12-16T02:10:44.496Z,22.51
2022-12-16T02:13:10.863Z,22.50
2022-12-16T02:15:37.248Z,22.50
2022-12-16T02:18:03.589Z,22.49
2022-12-16T02:20:29.972Z,22.48
2022-12-16T02:22:56.315Z,22.48
2022-12-16T02:25:22.698Z,22.49
2022-12-16T02:27:49.049Z,22.48
2022-12-16T02:30:15.440Z,22.48
2022-12-16T02:32:41.849Z,22.48
2022-12-16T02:35:08.270Z,22.50
2022-12-16T02:37:34.607Z,22.50
2022-12-16T02:40:00.993Z,22.52
2022-12-16T02:42:27.341Z,22.50
2022-12-16T02:44:53.724Z,22.54
2022-12-16T02:47:20.104Z,22.55
2022-12-16T02:49:46.488Z,22.55
2022-12-16T02:52:12.859Z,22.56
2022-12-16T02:54:39.242Z,22.56
2022-12-16T02:57:05.585Z,22.59
2022-12-16T02:59:31.969Z,22.57
2022-12-16T03:01:58.550Z,22.59
2022-12-16T03:04:24.755Z,22.58
2022-12-16T03:06:51.095Z,22.62
2022-12-16T03:09:17.491Z,22.63
2022-12-16T03:11:43.826Z,22.63
2022-12-16T03:14:10.208Z,22.58
2022-12-16T03:16:36.590Z,22.58
2022-12-16T03:19:02.930Z,22.58
2022-12-16T03:21:29.271Z,22.59
2022-12-16T03:23:55.653Z,22.58
2022-12-16T03:26:21.993Z,22.59
2022-12-16T03:28:48.397Z,22.60
2022-12-16T03:31:14.806Z,22.59
2022-12-16T03:33:41.128Z,22.59
2022-12-16T03:36:08.795Z,22.59
2022-12-16T03:38:33.872Z,22.60
2022-12-16T03:41:00.254Z,22.58
2022-12-16T03:43:26.635Z,22.62
2022-12-16T03:45:53.073Z,22.60
2022-12-16T03:48:19.353Z,22.60
2022-12-16T03:50:45.699Z,22.60
2022-12-16T03:53:12.075Z,22.61
2022-12-16T03:55:38.420Z,22.61
2022-12-16T03:58:04.840Z,22.62
2022-12-16T04:00:31.213Z,22.64
2022-12-16T04:02:59.606Z,22.64
2022-12-16T04:05:23.941Z,22.63
2022-12-16T04:07:50.332Z,22.57
2022-12-16T04:10:16.666Z,22.62
2022-12-16T04:12:43.058Z,22.63
2022-12-16T04:15:09.407Z,22.63
2022-12-16T04:17:35.791Z,22.62
2022-12-16T04:20:02.134Z,22.63
2022-12-16T04:22:28.519Z,22.64
2022-12-16T04:24:54.857Z,22.63
2022-12-16T04:27:21.257Z,22.64
2022-12-16T04:29:47.606Z,22.64
2022-12-16T04:32:13.992Z,22.65
2022-12-16T04:34:40.326Z,22.64
2022-12-16T04:37:06.744Z,22.62
2022-12-16T04:39:33.112Z,22.66
2022-12-16T04:41:59.535Z,22.64
2022-12-16T04:44:25.871Z,22.65
2022-12-16T04:46:52.323Z,22.64
2022-12-16T04:49:18.625Z,22.66
2022-12-16T04:51:45.008Z,22.64
2022-12-16T04:54:11.356Z,22.64
2022-12-16T04:56:37.739Z,22.65
2022-12-16T04:59:04.088Z,22.66
2022-12-16T05:01:30.582Z,22.67
2022-12-16T05:03:56.847Z,22.66
2022-12-16T05:06:23.214Z,22.69
2022-12-16T05:08:49.568Z,22.68
2022-12-16T05:11:15.950Z,22.71
2022-12-16T05:13:42.284Z,22.71
2022-12-16T05:16:08.698Z,22.73
2022-12-16T05:18:35.007Z,22.72
2022-12-16T05:21:01.391Z,22.75
2022-12-16T05:23:27.738Z,22.74
2022-12-16T05:25:54.122Z,22.84
2022-12-16T05:28:20.466Z,22.78
2022-12-16T05:30:46.885Z,22.81
2022-12-16T05:33:13.186Z,22.87
2022-12-16T05:35:39.573Z,22.95
2022-12-16T05:38:05.925Z,22.90
2022-12-16T05:40:32.338Z,22.97
2022-12-16T05:42:58.675Z,23.01
2022-12-16T05:45:25.060Z,23.07
2022-12-16T05:47:51.412Z,23.15
2022-12-16T05:50:17.852Z,23.14
2022-12-16T05:52:44.136Z,23.18
2022-12-16T05:55:10.532Z,23.21
2022-12-16T05:57:36.860Z,23.25
2022-12-16T06:00:03.286Z,23.27
2022-12-16T06:02:29.902Z,23.30
2022-12-16T06:04:56.099Z,23.31
2022-12-16T06:07:22.477Z,23.36
2022-12-16T06:09:54.736Z,23.35
2022-12-16T06:12:15.271Z,23.40
2022-12-16T06:14:41.694Z,23.46
2022-12-16T06:17:08.018Z,23.47
2022-12-16T06:19:34.418Z,23.44
2022-12-16T06:22:00.758Z,23.48
2022-12-16T06:24:27.148Z,23.51
2022-12-16T06:26:53.489Z,23.55
2022-12-16T06:29:19.878Z,23.55
2022-12-16T06:31:46.292Z,23.61
2022-12-16T06:34:12.617Z,23.62
2022-12-16T06:36:38.961Z,23.60
2022-12-16T06:39:05.342Z,23.67
2022-12-16T06:41:31.688Z,23.69
2022-12-16T06:43:58.086Z,23.72
2022-12-16T06:46:24.460Z,23.78
2022-12-16T06:48:50.835Z,23.79
2022-12-16T06:51:17.175Z,23.83
2022-12-16T06:53:43.566Z,23.89
2022-12-16T06:56:10.092Z,23.92
2022-12-16T06:58:36.468Z,23.99
2022-12-16T07:01:03.061Z,24.11
2022-12-16T07:03:34.093Z,24.08
2022-12-16T07:05:55.604Z,24.02
2022-12-16T07:08:21.988Z,24.08
2022-12-16T07:10:48.361Z,24.03
2022-12-16T07:13:14.753Z,24.02
2022-12-16T07:15:41.096Z,24.00
2022-12-16T07:18:07.491Z,23.95
2022-12-16T07:20:33.842Z,23.99
2022-12-16T07:23:08.361Z,24.00
2022-12-16T07:25:26.600Z,24.04
2022-12-16T07:27:52.988Z,24.10
2022-12-16T07:30:19.330Z,24.11
2022-12-16T07:32:45.727Z,24.08
2022-12-16T07:35:12.071Z,24.10
2022-12-16T07:37:38.473Z,24.13
2022-12-16T07:40:04.828Z,24.11
2022-12-16T07:42:31.224Z,24.13
2022-12-16T07:44:57.558Z,24.12
2022-12-16T07:47:23.971Z,24.12
2022-12-16T07:49:50.849Z,24.18
2022-12-16T07:52:16.701Z,24.23
2022-12-16T07:54:43.052Z,24.22
2022-12-16T07:57:09.462Z,24.27
2022-12-16T07:59:35.885Z,24.28
2022-12-16T08:02:02.400Z,24.33
2022-12-16T08:04:28.604Z,24.33
2022-12-16T08:06:54.992Z,24.20
2022-12-16T08:09:21.331Z,24.25
2022-12-16T08:11:47.752Z,24.28
2022-12-16T08:14:14.098Z,24.32
2022-12-16T08:16:40.507Z,24.32
2022-12-16T08:19:10.963Z,24.38
2022-12-16T08:21:33.220Z,24.38
2022-12-16T08:23:59.593Z,24.37
2022-12-16T08:26:26.009Z,24.41
2022-12-16T08:28:52.346Z,24.33
2022-12-16T08:31:18.816Z,24.44
2022-12-16T08:33:45.110Z,24.42
2022-12-16T08:36:11.504Z,24.43
2022-12-16T08:38:37.929Z,24.45
2022-12-16T08:41:04.275Z,24.49
2022-12-16T08:43:30.962Z,24.48
2022-12-16T08:45:57.068Z,24.48
2022-12-16T08:48:23.347Z,24.54
2022-12-16T08:50:49.746Z,24.52
2022-12-16T08:53:16.089Z,24.47
2022-12-16T08:55:42.473Z,24.44
2022-12-16T08:58:09.764Z,24.43
2022-12-16T09:00:35.200Z,24.46
2022-12-16T09:03:02.500Z,24.44
2022-12-16T09:05:28.675Z,24.46
2022-12-16T09:07:55.039Z,24.45
2022-12-16T09:10:21.435Z,24.40
2022-12-16T09:12:47.789Z,24.42
2022-12-16T09:15:14.188Z,24.37
2022-12-16T09:17:40.527Z,24.42
2022-12-16T09:20:08.718Z,24.44
2022-12-16T09:22:33.251Z,24.48
2022-12-16T09:24:59.630Z,24.48
2022-12-16T09:27:25.969Z,24.45
2022-12-16T09:29:52.358Z,24.44
2022-12-16T09:32:18.712Z,24.51
2022-12-16T09:34:45.045Z,24.48
2022-12-16T09:37:11.426Z,24.48
2022-12-16T09:39:37.785Z,24.48
2022-12-16T09:42:04.162Z,24.49
2022-12-16T09:44:30.538Z,24.46
2022-12-16T09:46:57.018Z,24.43
2022-12-16T09:49:23.307Z,24.51
2022-12-16T09:51:49.682Z,24.43
2022-12-16T09:54:16.014Z,24.40
2022-12-16T09:56:42.454Z,24.45
2022-12-16T09:59:08.806Z,24.52
2022-12-16T10:01:35.357Z,24.52
2022-12-16T10:04:01.625Z,24.51
2022-12-16T10:06:27.975Z,24.52
2022-12-16T10:08:54.357Z,24.50
2022-12-16T10:11:20.740Z,24.54
2022-12-16T10:13:47.095Z,24.55
2022-12-16T10:16:13.569Z,24.52
2022-12-16T10:18:39.878Z,24.59
2022-12-16T10:21:06.260Z,24.63
2022-12-16T10:23:33.015Z,24.61
2022-12-16T10:25:59.030Z,24.62
2022-12-16T10:28:25.380Z,24.47
2022-12-16T10:30:51.846Z,24.70
2022-12-16T10:33:18.110Z,24.59
2022-12-16T10:35:44.587Z,24.59
2022-12-16T10:38:10.964Z,24.62
2022-12-16T10:40:37.356Z,24.68
2022-12-16T10:43:03.700Z,24.68
2022-12-16T10:45:30.122Z,24.77
2022-12-16T10:47:56.469Z,24.77
2022-12-16T10:50:22.848Z,24.72
2022-12-16T10:52:49.185Z,24.67
2022-12-16T10:55:15.598Z,24.67
2022-12-16T10:57:41.934Z,24.75
2022-12-16T11:00:08.315Z,24.75
2022-12-16T11:02:34.815Z,24.74
2022-12-16T11:05:01.047Z,24.85
2022-12-16T11:07:27.402Z,24.85
2022-12-16T11:09:53.801Z,24.69
2022-12-16T11:12:20.143Z,24.69
2022-12-16T11:15:05.706Z,24.69
2022-12-16T11:17:12.870Z,24.69
2022-12-16T11:19:39.275Z,24.80
2022-12-16T11:22:05.617Z,24.85
2022-12-16T11:24:32.050Z,24.77
2022-12-16T11:26:58.394Z,24.74
2022-12-16T11:29:24.797Z,24.68
2022-12-16T11:31:55.191Z,24.71
2022-12-16T11:34:17.611Z,24.79
2022-12-16T11:36:43.957Z,24.77
2022-12-16T11:41:48.622Z,24.80
2022-12-16T11:44:15.020Z,24.77
2022-12-16T11:46:41.465Z,24.81
2022-12-16T11:49:07.758Z,24.77
2022-12-16T11:51:34.190Z,24.77
2022-12-16T11:54:00.532Z,24.79
2022-12-16T11:56:26.996Z,24.79
2022-12-16T11:58:53.279Z,24.77
2022-12-16T12:01:19.720Z,24.78
2022-12-16T12:03:46.210Z,24.77
2022-12-16T12:06:12.451Z,24.87
2022-12-16T12:08:38.805Z,24.82
2022-12-16T12:11:05.194Z,24.77
2022-12-16T12:13:31.934Z,24.72
2022-12-16T12:15:59.522Z,24.83
2022-12-16T12:18:25.534Z,24.82
2022-12-16T12:20:50.728Z,24.82
2022-12-16T12:23:18.294Z,24.86
2022-12-16T12:25:43.465Z,24.86
2022-12-16T12:28:09.838Z,24.86
2022-12-16T12:30:36.346Z,24.87
2022-12-16T12:33:03.171Z,24.87
2022-12-16T12:35:29.517Z,24.88
2022-12-16T12:37:55.866Z,24.89
2022-12-16T12:40:22.244Z,24.86
2022-12-16T12:42:49.825Z,24.86
2022-12-16T12:45:15.009Z,24.87
2022-12-16T12:47:41.345Z,24.90
2022-12-16T12:50:07.730Z,24.90
2022-12-16T12:52:34.071Z,24.91
2022-12-16T12:55:00.457Z,24.92
2022-12-16T12:57:26.820Z,24.89
2022-12-16T12:59:55.980Z,24.90
2022-12-16T13:02:19.647Z,24.91
2022-12-16T13:04:45.941Z,24.91
2022-12-16T13:07:15.360Z,24.91
2022-12-16T13:09:41.739Z,24.90
2022-12-16T13:12:08.083Z,24.90
2022-12-16T13:14:34.483Z,24.89
2022-12-16T13:17:00.824Z,24.93
2022-12-16T13:19:27.210Z,24.88
2022-12-16T13:21:53.554Z,24.97
2022-12-16T13:24:19.931Z,25.01
2022-12-16T13:26:46.294Z,25.01
2022-12-16T13:29:12.673Z,24.98
2022-12-16T13:31:39.070Z,24.95
2022-12-16T13:34:05.416Z,24.95
2022-12-16T13:36:31.767Z,25.04
2022-12-16T13:38:58.166Z,25.04
2022-12-16T13:41:24.505Z,25.16
2022-12-16T13:43:50.935Z,25.16
2022-12-16T13:46:17.328Z,25.15
2022-12-16T13:48:43.718Z,25.15
2022-12-16T13:51:18.166Z,25.15
2022-12-16T13:53:36.516Z,25.05
2022-12-16T13:56:02.853Z,25.09
2022-12-16T13:58:29.276Z,25.03
2022-12-16T14:00:55.711Z,25.16
2022-12-16T14:03:22.148Z,25.16
2022-12-16T14:05:48.395Z,25.08
2022-12-16T14:08:14.809Z,25.10
2022-12-16T14:10:41.163Z,25.02
2022-12-16T14:13:07.557Z,25.02
2022-12-16T14:15:33.894Z,25.05
2022-12-16T14:18:00.283Z,25.10
2022-12-16T14:20:26.634Z,25.14
2022-12-16T14:22:53.037Z,25.07
2022-12-16T14:25:23.240Z,25.07
2022-12-16T14:27:45.813Z,25.11
2022-12-16T14:30:12.160Z,25.06
2022-12-16T14:32:38.544Z,25.14
2022-12-16T14:35:04.884Z,25.11
2022-12-16T14:37:31.271Z,25.09
2022-12-16T14:39:57.989Z,25.07
2022-12-16T14:42:24.365Z,25.00
2022-12-16T14:44:50.712Z,25.08
2022-12-16T14:47:17.096Z,25.05
2022-12-16T14:49:43.430Z,25.08
2022-12-16T14:52:09.881Z,25.06
2022-12-16T14:54:36.224Z,24.99
2022-12-16T14:57:02.620Z,24.99
2022-12-16T14:59:28.951Z,24.99
2022-12-16T15:01:55.680Z,25.04
2022-12-16T15:04:21.929Z,25.04
2022-12-16T15:06:48.116Z,25.01
2022-12-16T15:09:14.450Z,24.95
2022-12-16T15:11:40.837Z,25.01
2022-12-16T15:14:07.178Z,24.92
2022-12-16T15:16:33.618Z,24.99
2022-12-16T15:18:59.948Z,24.96
2022-12-16T15:21:26.341Z,25.03
2022-12-16T15:23:52.689Z,24.96
2022-12-16T15:26:19.071Z,25.00
2022-12-16T15:28:48.878Z,25.00
2022-12-16T15:31:15.413Z,25.00
2022-12-16T15:33:41.678Z,24.92
2022-12-16T15:36:08.054Z,24.91
2022-12-16T15:38:34.395Z,24.91
2022-12-16T15:41:00.970Z,24.91
2022-12-16T15:43:27.127Z,24.91
2022-12-16T15:45:53.579Z,24.87
2022-12-16T15:48:19.860Z,24.81
2022-12-16T15:50:46.230Z,24.94
2022-12-16T15:53:12.569Z,24.94
2022-12-16T15:55:38.956Z,24.91
2022-12-16T15:58:05.295Z,24.90
2022-12-16T16:00:31.675Z,24.85
2022-12-16T16:02:58.208Z,24.85
2022-12-16T16:05:24.411Z,24.75
2022-12-16T16:07:50.780Z,24.75
2022-12-16T16:10:17.170Z,24.81
2022-12-16T16:12:43.503Z,24.75
2022-12-16T16:15:09.885Z,24.73
2022-12-16T16:17:36.224Z,24.77
2022-12-16T16:20:03.971Z,24.74
2022-12-16T16:22:28.949Z,24.65
2022-12-16T16:24:55.333Z,24.76
2022-12-16T16:27:21.697Z,24.76
2022-12-16T16:29:48.079Z,24.75
2022-12-16T16:32:14.412Z,24.67
2022-12-16T16:34:40.901Z,24.57
2022-12-16T16:37:07.242Z,24.75
2022-12-16T16:39:33.634Z,24.66
2022-12-16T16:41:59.965Z,24.66
2022-12-16T16:44:26.365Z,24.68
2022-12-16T16:46:52.770Z,24.71
2022-12-16T16:49:19.176Z,24.62
2022-12-16T16:51:45.502Z,24.64
2022-12-16T16:54:11.888Z,24.63
2022-12-16T16:56:38.276Z,24.56
2022-12-16T16:59:04.650Z,24.64
2022-12-16T17:01:31.132Z,24.66
2022-12-16T17:03:57.533Z,24.66
2022-12-16T17:06:23.705Z,24.58
2022-12-16T17:08:50.084Z,24.63
2022-12-16T17:11:16.423Z,24.63
2022-12-16T17:13:42.812Z,24.63
2022-12-16T17:16:09.200Z,24.62
2022-12-16T17:18:36.567Z,24.58
2022-12-16T17:21:01.870Z,24.60
2022-12-16T17:23:28.242Z,24.61
2022-12-16T17:25:54.575Z,24.58
2022-12-16T17:28:20.957Z,24.56
2022-12-16T17:30:47.984Z,24.44
2022-12-16T17:33:13.720Z,24.44
2022-12-16T17:35:40.119Z,24.54
2022-12-16T17:38:06.500Z,24.53
2022-12-16T17:40:32.857Z,24.41
2022-12-16T17:43:01.672Z,24.40
2022-12-16T17:45:28.006Z,24.40
2022-12-16T17:47:54.403Z,24.40
2022-12-16T17:50:20.746Z,24.44
2022-12-16T17:52:47.131Z,24.49
2022-12-16T17:55:13.472Z,24.45
2022-12-16T17:57:39.849Z,24.45
2022-12-16T18:00:06.195Z,24.35
2022-12-16T18:02:32.809Z,24.41
2022-12-16T18:04:58.985Z,24.40
2022-12-16T18:07:25.367Z,24.30
2022-12-16T18:09:51.733Z,24.30
2022-12-16T18:12:18.191Z,24.35
2022-12-16T18:14:44.532Z,24.32
2022-12-16T18:17:10.927Z,24.31
2022-12-16T18:19:37.299Z,24.31
2022-12-16T18:22:03.677Z,24.26
2022-12-16T18:24:30.008Z,24.26
2022-12-16T18:26:56.629Z,24.23
2022-12-16T18:29:23.009Z,24.24
2022-12-16T18:31:49.511Z,24.25
2022-12-16T18:34:15.734Z,24.19
2022-12-16T18:36:42.122Z,24.22
2022-12-16T18:39:08.467Z,24.18
2022-12-16T18:41:34.861Z,24.18
2022-12-16T18:44:01.198Z,24.20
2022-12-16T18:46:28.807Z,24.16
2022-12-16T18:48:53.936Z,24.19
2022-12-16T18:51:20.312Z,24.13
2022-12-16T18:53:46.649Z,24.14
2022-12-16T18:56:13.493Z,24.16
2022-12-16T18:58:51.257Z,24.14
2022-12-16T19:01:06.259Z,24.03
2022-12-16T19:03:32.571Z,24.11
2022-12-16T19:05:58.959Z,24.11
2022-12-16T19:08:25.307Z,24.08
2022-12-16T19:10:51.700Z,24.09
2022-12-16T19:13:18.045Z,24.08
2022-12-16T19:15:44.431Z,24.07
2022-12-16T19:18:10.765Z,24.07
2022-12-16T19:20:37.145Z,23.93
2022-12-16T19:23:03.483Z,23.93
2022-12-16T19:25:29.872Z,24.02
2022-12-16T19:30:22.592Z,23.95
2022-12-16T19:32:48.955Z,23.95
2022-12-16T19:35:15.337Z,23.95
2022-12-16T19:37:41.668Z,23.95
2022-12-16T19:40:08.078Z,23.95
2022-12-16T19:42:34.416Z,23.95
2022-12-16T19:45:00.824Z,23.95
2022-12-16T19:47:27.180Z,23.93
2022-12-16T19:49:53.563Z,23.85
2022-12-16T19:52:19.924Z,23.85
2022-12-16T19:54:46.283Z,23.93
2022-12-16T19:57:12.629Z,23.86
2022-12-16T19:59:39.014Z,23.89
2022-12-16T20:02:05.615Z,23.86
2022-12-16T20:04:31.752Z,23.85
2022-12-16T20:06:58.150Z,23.84
2022-12-16T20:09:24.486Z,23.84
2022-12-16T20:11:50.874Z,23.86
2022-12-16T20:14:18.956Z,23.85
2022-12-16T20:16:43.658Z,23.83
2022-12-16T20:19:09.995Z,23.82
2022-12-16T20:21:36.392Z,23.82
2022-12-16T20:24:02.764Z,23.80
2022-12-16T20:26:29.101Z,23.81
2022-12-16T20:28:55.442Z,23.78
2022-12-16T20:31:21.832Z,23.79
2022-12-16T20:33:48.360Z,23.75
2022-12-16T20:36:14.565Z,23.78
2022-12-16T20:38:40.907Z,23.75
2022-12-16T20:41:07.328Z,23.75
2022-12-16T20:43:33.675Z,23.75
2022-12-16T20:46:00.116Z,23.72
2022-12-16T20:48:26.440Z,23.73
2022-12-16T20:50:56.087Z,23.70
2022-12-16T20:53:19.198Z,23.70
2022-12-16T20:55:45.591Z,23.70
2022-12-16T20:58:11.946Z,23.69
2022-12-16T21:00:38.382Z,23.68
2022-12-16T21:03:04.745Z,23.68
2022-12-16T21:05:31.071Z,23.66
2022-12-16T21:07:57.416Z,23.65
2022-12-16T21:10:23.805Z,23.64
2022-12-16T21:12:50.147Z,23.64
2022-12-16T21:14:28.294Z,23.99
2022-12-16T21:15:16.547Z,23.66
2022-12-16T21:17:42.882Z,23.62
2022-12-16T21:20:09.307Z,23.61
2022-12-16T21:22:35.656Z,23.60
2022-12-16T21:25:02.048Z,23.60
2022-12-16T21:27:28.387Z,23.59
2022-12-16T21:29:54.770Z,23.58
2022-12-16T21:32:21.113Z,23.58
2022-12-16T21:34:47.535Z,23.56
2022-12-16T21:37:13.878Z,23.56
2022-12-16T21:39:40.258Z,23.57
2022-12-16T21:42:07.941Z,23.53
2022-12-16T21:44:32.988Z,23.52
2022-12-16T21:46:59.346Z,23.52
2022-12-16T21:49:25.738Z,23.53
2022-12-16T21:51:52.083Z,23.53
2022-12-16T21:54:18.476Z,23.48
2022-12-16T21:56:44.821Z,23.48
2022-12-16T21:59:11.211Z,23.47
2022-12-16T22:01:37.752Z,23.45
2022-12-16T22:04:03.979Z,23.46
2022-12-16T22:09:12.600Z,23.45
2022-12-16T22:11:38.984Z,23.43
2022-12-16T22:14:05.333Z,23.42
2022-12-16T22:16:31.709Z,23.44
2022-12-16T22:18:58.055Z,23.42
2022-12-16T22:21:24.452Z,23.43
2022-12-16T22:23:50.796Z,23.43
2022-12-16T22:26:17.182Z,23.42
2022-12-16T22:28:43.519Z,23.43
2022-12-16T22:33:36.249Z,23.41
2022-12-16T22:36:02.647Z,23.38
2022-12-16T22:38:28.997Z,23.39
2022-12-16T22:40:56.361Z,23.39
2022-12-16T22:43:21.732Z,23.39
2022-12-16T22:45:48.139Z,23.38
2022-12-16T22:48:14.474Z,23.36
2022-12-16T22:50:40.856Z,23.34
2022-12-16T22:53:07.248Z,23.35
2022-12-16T22:55:33.601Z,23.35
2022-12-16T22:57:59.948Z,23.33
2022-12-16T23:00:26.321Z,23.32
2022-12-16T23:02:53.892Z,23.34
2022-12-16T23:05:23.664Z,23.32
2022-12-16T23:07:45.417Z,23.33
2022-12-16T23:10:11.834Z,23.30
2022-12-16T23:12:38.184Z,23.30
2022-12-16T23:15:04.574Z,23.30
2022-12-16T23:17:30.919Z,23.29
2022-12-16T23:19:57.299Z,23.29
2022-12-16T23:22:23.636Z,23.28
2022-12-16T23:24:50.034Z,23.25
2022-12-16T23:27:16.386Z,23.26
2022-12-16T23:29:42.764Z,23.25
2022-12-16T23:32:09.147Z,23.26
2022-12-16T23:34:36.769Z,23.25
2022-12-16T23:37:01.904Z,23.22
2022-12-16T23:39:28.287Z,23.24
2022-12-16T23:41:54.633Z,23.22
2022-12-16T23:44:21.024Z,23.23
2022-12-16T23:46:47.425Z,23.23
2022-12-16T23:49:13.756Z,23.22
2022-12-16T23:51:40.103Z,23.19
2022-12-16T23:54:06.486Z,23.17
2022-12-16T23:59:15.105Z,23.17
